Time;durP1;ratioP1;P1;durP2;ratioP2;P2;SDS_P1;SDS_P2;PMS_P1;PMS_P2;Temp;Humidity;BMP_temperature;BMP_pressure;BME280_temperature;BME280_humidity;BME280_pressure;Samples;Min_cycle;Max_cycle;Signal;HPM_P1;HPM_P2
2023/06/12 00:00:11;;;;;;;10.45;5.78;;;;;;;;;;6153947;28;20593;-83
2023/06/12 00:03:13;;;;;;;7.65;4.95;;;;;;;;;;6158559;28;20019;-83
2023/06/12 00:06:15;;;;;;;9.93;5.50;;;;;;;;;;6137501;28;20015;-83
2023/06/12 00:09:15;;;;;;;;;;;;;;;;;;6158541;28;20413;-83
2023/06/12 00:12:15;;;;;;;11.35;5.30;;;;;;;;;;6145258;28;20385;-83
2023/06/12 00:15:15;;;;;;;9.27;5.27;;;;;;;;;;6156297;28;20030;-83
2023/06/12 00:18:16;;;;;;;9.50;5.50;;;;;;;;;;6154050;28;20026;-82
2023/06/12 00:21:16;;;;;;;7.83;4.50;;;;;;;;;;6147075;28;20074;-83
2023/06/12 00:24:16;;;;;;;8.20;5.50;;;;;;;;;;6114701;28;20026;-83
2023/06/12 00:27:17;;;;;;;11.77;6.37;;;;;;;;;;6148896;28;20609;-83
2023/06/12 00:30:17;;;;;;;12.17;6.23;;;;;;;;;;6160400;28;20094;-83
2023/06/12 00:33:17;;;;;;;9.73;5.90;;;;;;;;;;6149803;28;20074;-83
2023/06/12 00:36:17;;;;;;;10.43;6.03;;;;;;;;;;6170655;28;20771;-84
2023/06/12 00:39:18;;;;;;;8.20;5.33;;;;;;;;;;6165902;28;20043;-83
2023/06/12 00:42:19;;;;;;;8.23;5.47;;;;;;;;;;6152031;28;20517;-83
2023/06/12 00:45:23;;;;;;;12.00;6.47;;;;;;;;;;6156439;28;20398;-83
2023/06/12 00:48:23;;;;;;;10.07;6.15;;;;;;;;;;6151053;28;20023;-83
2023/06/12 00:51:28;;;;;;;9.03;5.70;;;;;;;;;;6133077;28;20062;-83
2023/06/12 00:54:28;;;;;;;8.13;6.10;;;;;;;;;;6148441;28;20526;-83
2023/06/12 00:57:29;;;;;;;8.83;5.33;;;;;;;;;;6149827;28;20027;-84
2023/06/12 01:00:30;;;;;;;6.57;4.90;;;;;;;;;;6152320;28;20110;-83
2023/06/12 01:03:32;;;;;;;10.47;5.70;;;;;;;;;;6146649;28;20058;-83
2023/06/12 01:06:37;;;;;;;12.60;5.97;;;;;;;;;;6162814;28;20473;-83
2023/06/12 01:09:58;;;;;;;10.73;6.03;;;;;;;;;;6137012;28;20032;-83
2023/06/12 01:12:59;;;;;;;10.73;5.97;;;;;;;;;;6147209;28;20054;-83
2023/06/12 01:15:59;;;;;;;9.38;6.32;;;;;;;;;;6155253;28;20450;-83
2023/06/12 01:19:00;;;;;;;10.70;6.17;;;;;;;;;;6146720;28;20034;-83
2023/06/12 01:22:03;;;;;;;12.05;6.65;;;;;;;;;;6153002;28;20015;-83
2023/06/12 01:25:03;;;;;;;9.77;5.63;;;;;;;;;;6145479;28;20019;-83
2023/06/12 01:28:03;;;;;;;11.48;6.28;;;;;;;;;;6149078;28;20019;-83
2023/06/12 01:31:08;;;;;;;12.20;6.50;;;;;;;;;;6157050;28;20014;-83
2023/06/12 01:34:12;;;;;;;8.80;5.50;;;;;;;;;;6148202;28;20027;-83
2023/06/12 01:37:31;;;;;;;8.40;6.22;;;;;;;;;;6146508;28;20109;-82
2023/06/12 01:40:32;;;;;;;11.00;6.63;;;;;;;;;;6152426;28;20029;-82
2023/06/12 01:43:32;;;;;;;9.38;6.47;;;;;;;;;;6154884;28;20513;-82
2023/06/12 01:46:32;;;;;;;12.00;6.20;;;;;;;;;;6114586;28;20034;-82
2023/06/12 01:49:33;;;;;;;9.75;6.35;;;;;;;;;;6147729;28;20102;-83
2023/06/12 01:52:34;;;;;;;8.67;5.73;;;;;;;;;;6146019;28;20082;-82
2023/06/12 01:55:36;;;;;;;14.57;6.65;;;;;;;;;;6147268;28;20035;-83
2023/06/12 01:58:36;;;;;;;12.43;6.70;;;;;;;;;;6129606;28;20088;-83
2023/06/12 02:01:36;;;;;;;11.20;6.07;;;;;;;;;;6133946;28;20024;-83
2023/06/12 02:04:36;;;;;;;14.32;6.50;;;;;;;;;;6129470;28;20015;-83
2023/06/12 02:07:37;;;;;;;11.10;6.17;;;;;;;;;;6129452;28;20023;-82
2023/06/12 02:10:37;;;;;;;11.43;6.40;;;;;;;;;;6136980;28;20763;-82
2023/06/12 02:13:37;;;;;;;15.53;6.87;;;;;;;;;;6146239;28;20023;-82
2023/06/12 02:16:37;;;;;;;10.27;5.97;;;;;;;;;;6146468;28;20019;-82
2023/06/12 02:19:37;;;;;;;9.02;5.95;;;;;;;;;;6146324;28;20078;-82
2023/06/12 02:22:38;;;;;;;12.27;7.33;;;;;;;;;;6144303;28;20097;-82
2023/06/12 02:25:38;;;;;;;11.00;5.95;;;;;;;;;;6145400;28;20024;-83
2023/06/12 02:28:40;;;;;;;10.30;6.47;;;;;;;;;;6150667;28;20067;-82
2023/06/12 02:31:40;;;;;;;17.67;6.45;;;;;;;;;;6155340;28;20082;-82
2023/06/12 02:34:40;;;;;;;9.47;6.37;;;;;;;;;;6136507;28;20023;-82
2023/06/12 02:37:41;;;;;;;10.63;6.20;;;;;;;;;;6136203;28;20050;-83
2023/06/12 02:40:41;;;;;;;13.33;6.63;;;;;;;;;;6139757;28;20046;-83
2023/06/12 02:43:41;;;;;;;13.32;6.90;;;;;;;;;;6160560;28;20501;-83
2023/06/12 02:46:58;;;;;;;13.30;7.40;;;;;;;;;;6148800;28;20019;-84
2023/06/12 02:49:58;;;;;;;15.50;7.75;;;;;;;;;;6145764;28;20034;-84
2023/06/12 02:52:58;;;;;;;12.70;7.75;;;;;;;;;;6146433;28;20393;-83
2023/06/12 02:56:00;;;;;;;10.47;7.53;;;;;;;;;;6146716;28;20086;-83
2023/06/12 02:59:00;;;;;;;11.82;7.43;;;;;;;;;;6144380;28;20058;-84
2023/06/12 03:02:01;;;;;;;14.63;8.33;;;;;;;;;;6144909;28;20030;-83
2023/06/12 03:05:01;;;;;;;10.90;6.60;;;;;;;;;;6153316;28;20050;-83
2023/06/12 03:08:02;;;;;;;9.13;6.40;;;;;;;;;;6130860;28;20106;-83
2023/06/12 03:11:02;;;;;;;9.73;6.27;;;;;;;;;;6153879;28;20386;-83
2023/06/12 03:14:03;;;;;;;11.17;6.97;;;;;;;;;;6146641;28;20077;-83
2023/06/12 03:17:03;;;;;;;11.40;6.87;;;;;;;;;;6145864;28;20023;-83
2023/06/12 03:20:06;;;;;;;11.20;6.90;;;;;;;;;;6150138;28;20114;-83
2023/06/12 03:23:06;;;;;;;14.75;6.78;;;;;;;;;;6130472;28;20023;-83
2023/06/12 03:26:06;;;;;;;12.17;7.23;;;;;;;;;;6155575;28;20057;-83
2023/06/12 03:29:06;;;;;;;13.23;7.30;;;;;;;;;;6134427;28;20019;-83
2023/06/12 03:32:07;;;;;;;10.00;6.57;;;;;;;;;;6134644;28;20390;-83
2023/06/12 03:35:07;;;;;;;10.23;6.50;;;;;;;;;;6146308;28;20019;-83
2023/06/12 03:38:08;;;;;;;12.43;7.33;;;;;;;;;;6150690;28;20054;-83
2023/06/12 03:41:08;;;;;;;11.00;6.83;;;;;;;;;;6146542;28;20570;-83
2023/06/12 03:44:08;;;;;;;10.55;6.53;;;;;;;;;;6150106;28;20098;-83
2023/06/12 03:47:08;;;;;;;12.40;6.60;;;;;;;;;;6141935;28;20024;-83
2023/06/12 03:50:09;;;;;;;9.73;6.57;;;;;;;;;;6155083;28;20071;-83
2023/06/12 03:53:09;;;;;;;14.70;6.07;;;;;;;;;;6150432;28;20038;-82
2023/06/12 03:56:10;;;;;;;14.50;6.53;;;;;;;;;;6151721;28;20757;-83
2023/06/12 03:59:10;;;;;;;11.43;6.33;;;;;;;;;;6151553;28;20624;-83
2023/06/12 04:02:10;;;;;;;11.37;5.93;;;;;;;;;;6149359;28;20924;-83
2023/06/12 04:05:10;;;;;;;8.93;6.07;;;;;;;;;;6167169;28;20023;-83
2023/06/12 04:08:11;;;;;;;10.00;6.13;;;;;;;;;;6155353;28;20015;-83
2023/06/12 04:11:13;;;;;;;12.67;6.03;;;;;;;;;;6157108;28;20556;-83
2023/06/12 04:14:14;;;;;;;10.18;5.68;;;;;;;;;;6139775;28;20430;-83
2023/06/12 04:17:14;;;;;;;9.00;5.60;;;;;;;;;;6155041;28;20034;-82
2023/06/12 04:20:14;;;;;;;7.70;5.30;;;;;;;;;;6149476;28;20089;-82
2023/06/12 04:23:16;;;;;;;11.97;5.70;;;;;;;;;;6149645;28;20520;-82
2023/06/12 04:26:17;;;;;;;11.60;5.15;;;;;;;;;;6157977;28;20019;-82
2023/06/12 04:29:17;;;;;;;9.60;5.60;;;;;;;;;;6134617;28;20623;-82
2023/06/12 04:32:17;;;;;;;10.27;6.37;;;;;;;;;;6148780;28;20255;-82
2023/06/12 04:35:19;;;;;;;9.10;5.77;;;;;;;;;;6130656;28;20062;-82
2023/06/12 04:38:19;;;;;;;11.27;5.35;;;;;;;;;;6151962;28;20106;-82
2023/06/12 04:41:20;;;;;;;7.22;5.15;;;;;;;;;;6159150;28;20431;-82
2023/06/12 04:44:21;;;;;;;7.10;4.33;;;;;;;;;;6157389;28;20077;-82
2023/06/12 04:47:23;;;;;;;16.35;5.93;;;;;;;;;;6132647;28;20110;-82
2023/06/12 04:50:23;;;;;;;9.02;5.55;;;;;;;;;;6151009;28;20513;-82
2023/06/12 04:53:30;;;;;;;8.40;4.70;;;;;;;;;;6136168;28;20106;-82
2023/06/12 04:56:31;;;;;;;8.98;5.20;;;;;;;;;;6137936;28;20023;-82
2023/06/12 04:59:37;;;;;;;19.75;5.05;;;;;;;;;;6156045;28;20027;-82
2023/06/12 05:02:37;;;;;;;8.88;4.82;;;;;;;;;;6137060;28;20046;-82
2023/06/12 05:05:37;;;;;;;8.07;4.53;;;;;;;;;;6147869;28;20031;-83
2023/06/12 05:08:37;;;;;;;11.13;4.27;;;;;;;;;;6150109;28;20024;-82
2023/06/12 05:11:37;;;;;;;7.57;4.10;;;;;;;;;;6148362;28;20031;-82
2023/06/12 05:14:40;;;;;;;7.00;3.80;;;;;;;;;;6142054;28;20078;-82
2023/06/12 05:17:40;;;;;;;4.30;3.40;;;;;;;;;;6146465;28;20031;-82
2023/06/12 05:20:41;;;;;;;7.03;4.57;;;;;;;;;;6135115;28;20818;-82
2023/06/12 05:23:41;;;;;;;7.23;4.40;;;;;;;;;;6151748;28;20030;-83
2023/06/12 05:26:42;;;;;;;6.47;3.78;;;;;;;;;;6152746;28;20059;-87
2023/06/12 05:29:42;;;;;;;8.23;4.07;;;;;;;;;;6151217;28;20023;-86
2023/06/12 05:32:42;;;;;;;7.47;4.07;;;;;;;;;;6156232;28;20027;-86
2023/06/12 05:35:43;;;;;;;8.40;3.27;;;;;;;;;;6151234;28;20139;-86
2023/06/12 05:38:46;;;;;;;7.97;2.72;;;;;;;;;;6133376;29;20035;-86
2023/06/12 05:41:46;;;;;;;5.72;3.60;;;;;;;;;;6137123;28;20030;-86
2023/06/12 05:44:46;;;;;;;5.47;3.10;;;;;;;;;;6158953;28;20379;-87
2023/06/12 05:47:46;;;;;;;4.23;3.33;;;;;;;;;;6155508;28;20053;-86
2023/06/12 05:50:47;;;;;;;7.63;3.00;;;;;;;;;;6133139;28;20027;-86
2023/06/12 05:53:47;;;;;;;4.47;2.43;;;;;;;;;;6164052;28;20466;-86
2023/06/12 05:56:47;;;;;;;4.20;2.40;;;;;;;;;;6134267;28;20136;-86
2023/06/12 05:59:48;;;;;;;4.27;2.23;;;;;;;;;;6157023;28;20015;-85
2023/06/12 06:02:48;;;;;;;4.17;2.40;;;;;;;;;;6165944;28;20063;-87
2023/06/12 06:05:49;;;;;;;3.53;2.43;;;;;;;;;;6155772;28;20537;-86
2023/06/12 06:08:49;;;;;;;;;;;;;;;;;;6144954;28;20015;-87
2023/06/12 06:11:50;;;;;;;5.57;2.40;;;;;;;;;;6163939;28;19921;-86
2023/06/12 06:14:50;;;;;;;3.63;2.30;;;;;;;;;;6148641;28;20019;-86
2023/06/12 06:17:50;;;;;;;5.50;2.57;;;;;;;;;;6154058;28;20023;-86
2023/06/12 06:20:52;;;;;;;5.82;2.47;;;;;;;;;;6156840;28;20027;-86
2023/06/12 06:23:52;;;;;;;;;;;;;;;;;;6139712;28;20501;-84
2023/06/12 06:26:52;;;;;;;4.82;2.30;;;;;;;;;;6147440;28;19910;-84
2023/06/12 06:29:52;;;;;;;3.20;2.00;;;;;;;;;;6149983;28;20023;-84
2023/06/12 06:32:53;;;;;;;6.00;2.60;;;;;;;;;;6154472;28;20500;-84
2023/06/12 06:35:54;;;;;;;4.03;2.73;;;;;;;;;;6152028;28;20052;-81
2023/06/12 06:38:55;;;;;;;;;;;;;;;;;;6148936;28;20023;-81
2023/06/12 06:41:56;;;;;;;8.25;2.63;;;;;;;;;;6139218;28;19918;-82
2023/06/12 06:44:56;;;;;;;4.43;2.63;;;;;;;;;;6145088;28;20019;-83
2023/06/12 06:47:56;;;;;;;4.63;2.50;;;;;;;;;;6124753;28;20019;-82
2023/06/12 06:50:57;;;;;;;3.95;2.90;;;;;;;;;;6142402;28;20027;-82
2023/06/12 06:53:57;;;;;;;3.17;2.08;;;;;;;;;;6156150;28;20027;-82
2023/06/12 06:56:57;;;;;;;4.17;2.10;;;;;;;;;;6125586;28;20031;-81
2023/06/12 06:59:58;;;;;;;4.80;2.60;;;;;;;;;;6143163;28;20031;-82
2023/06/12 07:02:58;;;;;;;4.70;2.40;;;;;;;;;;6148405;28;20425;-81
2023/06/12 07:05:58;;;;;;;4.23;2.50;;;;;;;;;;6151555;28;20027;-82
2023/06/12 07:09:00;;;;;;;3.60;2.47;;;;;;;;;;6146777;28;20047;-82
2023/06/12 07:12:00;;;;;;;5.68;2.80;;;;;;;;;;6133574;28;20118;-82
2023/06/12 07:15:01;;;;;;;8.33;2.37;;;;;;;;;;6158577;28;20023;-81
2023/06/12 07:18:01;;;;;;;4.93;2.37;;;;;;;;;;6137022;29;20027;-81
2023/06/12 07:21:01;;;;;;;5.87;2.73;;;;;;;;;;6162006;28;20755;-81
2023/06/12 07:24:02;;;;;;;4.03;2.20;;;;;;;;;;6152193;28;20020;-81
2023/06/12 07:27:02;;;;;;;8.47;2.60;;;;;;;;;;6130637;29;20027;-84
2023/06/12 07:30:03;;;;;;;3.83;2.20;;;;;;;;;;6149847;28;20401;-84
2023/06/12 07:33:03;;;;;;;4.40;2.90;;;;;;;;;;6135612;28;20494;-84
2023/06/12 07:36:03;;;;;;;3.43;2.30;;;;;;;;;;6135307;28;20474;-86
2023/06/12 07:39:04;;;;;;;2.67;2.17;;;;;;;;;;6157222;28;20026;-85
2023/06/12 07:42:06;;;;;;;4.32;2.10;;;;;;;;;;6150128;28;20023;-85
2023/06/12 07:45:06;;;;;;;5.65;2.60;;;;;;;;;;6155309;28;20471;-81
2023/06/12 07:48:07;;;;;;;6.20;3.08;;;;;;;;;;6135316;28;20090;-81
2023/06/12 07:51:07;;;;;;;6.05;2.42;;;;;;;;;;6163904;28;20129;-82
2023/06/12 07:54:07;;;;;;;3.88;2.22;;;;;;;;;;6151167;28;20026;-81
2023/06/12 07:57:07;;;;;;;4.20;2.33;;;;;;;;;;6144344;28;20370;-81
2023/06/12 08:00:08;;;;;;;11.43;2.70;;;;;;;;;;6155094;28;20027;-80
2023/06/12 08:03:09;;;;;;;4.90;2.03;;;;;;;;;;6142491;28;20019;-81
2023/06/12 08:06:10;;;;;;;5.78;1.90;;;;;;;;;;6132178;28;20573;-80
2023/06/12 08:09:10;;;;;;;3.30;2.33;;;;;;;;;;6145324;28;20024;-82
2023/06/12 08:12:13;;;;;;;3.77;1.93;;;;;;;;;;6150896;28;20023;-81
2023/06/12 08:15:13;;;;;;;4.75;2.05;;;;;;;;;;6155213;28;20034;-81
2023/06/12 08:18:14;;;;;;;6.60;2.20;;;;;;;;;;6142412;28;20023;-81
2023/06/12 08:21:14;;;;;;;3.13;1.90;;;;;;;;;;6148504;28;20019;-81
2023/06/12 08:24:14;;;;;;;4.77;2.20;;;;;;;;;;6155585;28;20027;-81
2023/06/12 08:27:15;;;;;;;3.03;2.25;;;;;;;;;;6148990;28;20023;-81
2023/06/12 08:30:15;;;;;;;9.70;2.22;;;;;;;;;;6128726;28;20027;-81
2023/06/12 08:33:16;;;;;;;5.57;2.10;;;;;;;;;;6147415;28;20094;-81
2023/06/12 08:36:16;;;;;;;7.75;2.13;;;;;;;;;;6136143;28;20190;-84
2023/06/12 08:39:16;;;;;;;5.25;2.40;;;;;;;;;;6150971;28;20058;-84
2023/06/12 08:42:17;;;;;;;5.53;2.60;;;;;;;;;;6161119;28;20042;-83
2023/06/12 08:45:22;;;;;;;5.63;2.47;;;;;;;;;;6160211;28;20030;-84
2023/06/12 10:00:26;;;;;;;8.07;2.70;;;;;;;;;;6335421;27;20376;-73
2023/06/12 10:03:26;;;;;;;6.10;2.07;;;;;;;;;;6314201;28;20137;-74
2023/06/12 10:06:27;;;;;;;6.77;2.17;;;;;;;;;;6312799;28;20052;-74
2023/06/12 10:09:27;;;;;;;10.77;2.80;;;;;;;;;;6304100;28;20070;-73
2023/06/12 10:12:29;;;;;;;4.43;2.60;;;;;;;;;;6312974;28;20017;-73
2023/06/12 10:15:29;;;;;;;3.38;2.17;;;;;;;;;;6309572;28;20514;-74
2023/06/12 10:18:30;;;;;;;6.33;2.27;;;;;;;;;;6310864;28;20016;-73
2023/06/12 10:21:31;;;;;;;7.40;2.63;;;;;;;;;;6342952;27;20029;-73
2023/06/12 10:24:32;;;;;;;5.13;2.38;;;;;;;;;;6310056;28;20024;-73
2023/06/12 10:27:33;;;;;;;6.30;2.67;;;;;;;;;;6308728;28;20024;-73
2023/06/12 10:30:33;;;;;;;6.50;2.30;;;;;;;;;;6312430;28;20039;-72
2023/06/12 10:33:34;;;;;;;5.13;2.00;;;;;;;;;;6310667;28;20074;-72
2023/06/12 10:36:41;;;;;;;6.07;2.63;;;;;;;;;;6310927;28;20017;-72
2023/06/12 10:39:41;;;;;;;2.20;2.00;;;;;;;;;;6305584;28;20036;-73
2023/06/12 10:42:49;;;;;;;6.05;1.90;;;;;;;;;;6313241;28;20060;-72
2023/06/12 10:45:56;;;;;;;6.90;2.35;;;;;;;;;;6309961;28;20056;-73
2023/06/12 10:49:04;;;;;;;13.68;2.78;;;;;;;;;;6307946;28;20401;-73
2023/06/12 10:52:17;;;;;;;7.75;3.15;;;;;;;;;;6310525;28;20032;-73
2023/06/12 10:55:19;;;;;;;3.40;2.13;;;;;;;;;;6310104;28;20466;-74
2023/06/12 10:58:20;;;;;;;4.32;1.95;;;;;;;;;;6312642;28;20147;-73
2023/06/12 11:01:20;;;;;;;8.95;2.05;;;;;;;;;;6313562;28;20020;-73
2023/06/12 11:04:20;;;;;;;4.53;1.43;;;;;;;;;;6313910;28;20771;-73
2023/06/12 11:07:20;;;;;;;3.27;2.23;;;;;;;;;;6308300;28;20013;-72
2023/06/12 11:10:21;;;;;;;2.20;1.50;;;;;;;;;;6304278;28;20033;-72
2023/06/12 11:13:22;;;;;;;7.07;2.55;;;;;;;;;;6295411;28;20028;-73
2023/06/12 11:16:26;;;;;;;4.07;2.00;;;;;;;;;;6294722;28;20033;-80
2023/06/12 11:19:30;;;;;;;3.75;1.95;;;;;;;;;;6294472;28;20106;-82
2023/06/12 11:22:30;;;;;;;4.43;2.05;;;;;;;;;;6296837;28;20040;-83
2023/06/12 11:25:32;;;;;;;4.57;2.17;;;;;;;;;;6289617;28;20645;-84
2023/06/12 11:28:32;;;;;;;9.25;2.20;;;;;;;;;;6293625;28;20273;-82
2023/06/12 11:31:32;;;;;;;2.97;1.67;;;;;;;;;;6293688;28;20475;-82
2023/06/12 11:34:36;;;;;;;4.35;2.30;;;;;;;;;;6293546;28;20470;-83
2023/06/12 11:37:37;;;;;;;4.80;2.00;;;;;;;;;;6293907;28;20029;-84
2023/06/12 11:40:38;;;;;;;5.45;2.22;;;;;;;;;;6296067;28;20871;-83
2023/06/12 11:43:42;;;;;;;4.28;2.00;;;;;;;;;;6292652;28;20039;-85
2023/06/12 11:46:43;;;;;;;3.85;1.77;;;;;;;;;;6290966;28;20028;-85
2023/06/12 11:49:43;;;;;;;3.28;1.90;;;;;;;;;;6294772;28;20498;-82
2023/06/12 11:52:45;;;;;;;5.30;2.23;;;;;;;;;;6291963;28;20108;-80
2023/06/12 11:55:45;;;;;;;8.15;2.72;;;;;;;;;;6291166;28;20112;-79
2023/06/12 11:58:45;;;;;;;2.43;2.13;;;;;;;;;;6292901;28;20050;-81
2023/06/12 12:01:48;;;;;;;4.47;2.33;;;;;;;;;;6295700;28;20415;-84
2023/06/12 12:04:48;;;;;;;5.75;2.00;;;;;;;;;;6295000;28;20030;-82
2023/06/12 12:07:55;;;;;;;8.40;2.50;;;;;;;;;;6294185;28;20021;-81
2023/06/12 12:10:56;;;;;;;4.93;1.98;;;;;;;;;;6296791;28;20032;-83
2023/06/12 12:13:58;;;;;;;4.80;1.57;;;;;;;;;;6285327;28;20364;-84
2023/06/12 12:17:03;;;;;;;5.55;2.20;;;;;;;;;;6289475;28;20028;-82
2023/06/12 12:20:10;;;;;;;6.22;1.90;;;;;;;;;;6287947;28;20379;-83
2023/06/12 12:23:12;;;;;;;2.58;2.10;;;;;;;;;;6292727;28;20076;-80
2023/06/12 12:26:13;;;;;;;4.63;2.00;;;;;;;;;;6293870;28;20036;-72
2023/06/12 12:29:13;;;;;;;2.92;2.05;;;;;;;;;;6293556;28;20103;-73
2023/06/12 12:32:13;;;;;;;9.37;2.10;;;;;;;;;;6293999;28;20020;-72
2023/06/12 12:35:14;;;;;;;5.67;1.90;;;;;;;;;;6293137;28;20020;-83
2023/06/12 12:38:15;;;;;;;4.00;1.67;;;;;;;;;;6292638;28;20024;-83
2023/06/12 12:41:16;;;;;;;4.77;1.70;;;;;;;;;;6287963;28;20067;-80
2023/06/12 12:44:16;;;;;;;4.13;2.15;;;;;;;;;;6293914;28;20020;-82
2023/06/12 12:47:16;;;;;;;3.83;2.53;;;;;;;;;;6289100;28;20537;-82
2023/06/12 12:50:18;;;;;;;5.60;1.90;;;;;;;;;;6297136;28;20024;-83
2023/06/12 12:53:18;;;;;;;3.60;2.00;;;;;;;;;;6293630;28;20174;-83
2023/06/12 12:56:19;;;;;;;3.97;1.80;;;;;;;;;;6299192;28;20423;-81
2023/06/12 12:59:19;;;;;;;8.23;2.10;;;;;;;;;;6291114;28;20055;-80
2023/06/12 13:02:19;;;;;;;7.13;1.88;;;;;;;;;;6291640;28;20048;-81
2023/06/12 13:05:19;;;;;;;4.90;1.70;;;;;;;;;;6291477;28;20020;-81
2023/06/12 13:08:19;;;;;;;5.32;2.13;;;;;;;;;;6288678;28;20129;-85
2023/06/12 13:11:20;;;;;;;3.30;1.70;;;;;;;;;;6291514;28;20017;-82
2023/06/12 13:14:21;;;;;;;6.43;2.35;;;;;;;;;;6292353;28;20082;-82
2023/06/12 13:17:21;;;;;;;4.75;1.90;;;;;;;;;;6293410;28;20027;-86
2023/06/12 13:20:23;;;;;;;4.20;1.83;;;;;;;;;;6288770;28;20024;-84
2023/06/12 13:23:23;;;;;;;2.67;1.70;;;;;;;;;;6301748;28;20466;-85
2023/06/12 13:26:24;;;;;;;4.77;2.93;;;;;;;;;;6292921;28;20047;-83
2023/06/12 13:29:24;;;;;;;7.97;2.33;;;;;;;;;;6296864;28;20119;-82
2023/06/12 13:32:24;;;;;;;4.73;3.27;;;;;;;;;;6298172;28;20350;-84
2023/06/12 13:35:25;;;;;;;10.50;3.30;;;;;;;;;;6296065;28;20129;-83
2023/06/12 13:38:26;;;;;;;3.78;1.67;;;;;;;;;;6295229;28;20088;-81
2023/06/12 13:41:27;;;;;;;4.00;1.73;;;;;;;;;;6289980;28;20020;-82
2023/06/12 13:44:28;;;;;;;5.80;2.33;;;;;;;;;;6291604;28;20056;-82
2023/06/12 13:47:28;;;;;;;5.00;2.10;;;;;;;;;;6292809;28;20046;-81
2023/06/12 13:50:29;;;;;;;5.30;1.80;;;;;;;;;;6286821;28;20036;-84
2023/06/12 13:53:29;;;;;;;3.05;1.95;;;;;;;;;;6294005;28;20023;-84
2023/06/12 13:56:30;;;;;;;6.93;1.83;;;;;;;;;;6287387;28;20024;-85
2023/06/12 13:59:30;;;;;;;6.72;2.33;;;;;;;;;;6292288;28;20079;-82
2023/06/12 14:02:30;;;;;;;3.20;1.70;;;;;;;;;;6293190;28;20055;-84
2023/06/12 14:05:30;;;;;;;6.97;1.88;;;;;;;;;;6290355;28;20024;-84
2023/06/12 14:08:33;;;;;;;;;;;;;;;;;;6288207;28;20078;-84
2023/06/12 14:11:35;;;;;;;2.97;2.20;;;;;;;;;;6289958;28;19913;-82
2023/06/12 14:14:36;;;;;;;4.95;2.83;;;;;;;;;;6290789;28;20053;-84
2023/06/12 14:17:37;;;;;;;7.22;1.92;;;;;;;;;;6291066;28;20114;-84
2023/06/12 14:20:37;;;;;;;;;;;;;;;;;;6292034;28;20017;-83
2023/06/12 14:23:39;;;;;;;10.30;2.30;;;;;;;;;;6288609;28;19961;-85
2023/06/12 14:26:40;;;;;;;5.10;2.15;;;;;;;;;;6290897;28;20009;-86
2023/06/12 14:29:40;;;;;;;4.75;1.70;;;;;;;;;;6291806;28;20025;-84
2023/06/12 14:32:41;;;;;;;;;;;;;;;;;;6291504;28;20078;-84
2023/06/12 14:35:41;;;;;;;5.72;1.80;;;;;;;;;;6290510;28;19963;-84
2023/06/12 14:38:41;;;;;;;;;;;;;;;;;;6290425;28;20100;-82
2023/06/12 14:41:41;;;;;;;5.25;1.38;;;;;;;;;;6291666;28;19904;-83
2023/06/12 14:44:41;;;;;;;;;;;;;;;;;;6286893;28;20736;-82
2023/06/12 14:47:41;;;;;;;4.18;2.00;;;;;;;;;;6291335;28;20011;-85
2023/06/12 14:50:42;;;;;;;4.35;2.22;;;;;;;;;;6291230;28;20082;-84
2023/06/12 14:53:42;;;;;;;;;;;;;;;;;;6295083;28;20031;-85
2023/06/12 14:56:42;;;;;;;4.30;1.65;;;;;;;;;;6291199;28;19923;-82
2023/06/12 14:59:42;;;;;;;;;;;;;;;;;;6294151;28;20689;-81
2023/06/12 15:02:42;;;;;;;3.72;1.90;;;;;;;;;;6290809;28;19916;-84
2023/06/12 15:05:42;;;;;;;;;;;;;;;;;;6298738;28;20063;-72
2023/06/12 15:08:45;;;;;;;5.05;2.45;;;;;;;;;;6294898;28;19965;-72
2023/06/12 15:11:45;;;;;;;3.78;1.98;;;;;;;;;;6288611;28;20032;-73
2023/06/12 15:14:45;;;;;;;3.95;2.05;;;;;;;;;;6292356;28;20021;-73
2023/06/12 15:17:47;;;;;;;2.77;1.60;;;;;;;;;;6288279;28;20134;-73
2023/06/12 15:20:47;;;;;;;4.28;1.70;;;;;;;;;;6291427;28;20021;-72
2023/06/12 15:23:47;;;;;;;;;;;;;;;;;;6296211;28;20032;-73
2023/06/12 15:26:47;;;;;;;3.83;2.17;;;;;;;;;;6288311;28;19915;-73
2023/06/12 15:29:47;;;;;;;7.65;2.28;;;;;;;;;;6317725;28;20024;-73
2023/06/12 15:32:48;;;;;;;;;;;;;;;;;;6283997;28;20036;-73
2023/06/12 15:35:48;;;;;;;2.90;1.93;;;;;;;;;;6299074;28;20370;-73
2023/06/12 15:38:48;;;;;;;;;;;;;;;;;;6289364;28;20418;-73
2023/06/12 15:41:49;;;;;;;6.05;2.17;;;;;;;;;;6291103;28;19935;-73
2023/06/12 15:44:49;;;;;;;;;;;;;;;;;;6290297;28;20938;-73
2023/06/12 15:47:50;;;;;;;6.88;2.08;;;;;;;;;;6292963;28;19908;-73
2023/06/12 15:50:51;;;;;;;5.90;1.98;;;;;;;;;;6282083;28;20063;-73
2023/06/12 15:53:51;;;;;;;;;;;;;;;;;;6286995;28;20020;-73
2023/06/12 15:56:52;;;;;;;5.20;1.98;;;;;;;;;;6292208;28;19943;-72
2023/06/12 15:59:52;;;;;;;3.25;2.03;;;;;;;;;;6291463;28;20060;-73
2023/06/12 16:02:53;;;;;;;6.18;3.17;;;;;;;;;;6293030;28;20056;-72
2023/06/12 16:05:53;;;;;;;8.70;4.68;;;;;;;;;;6285285;28;20023;-73
2023/06/12 16:08:53;;;;;;;4.53;1.80;;;;;;;;;;6284296;28;20086;-73
2023/06/12 16:11:53;;;;;;;5.18;2.47;;;;;;;;;;6293995;28;20047;-73
2023/06/12 16:14:54;;;;;;;6.67;2.37;;;;;;;;;;6291244;28;20021;-83
2023/06/12 16:17:55;;;;;;;3.22;1.58;;;;;;;;;;6294190;28;20576;-84
2023/06/12 16:20:55;;;;;;;3.55;2.00;;;;;;;;;;6291567;28;20095;-85
2023/06/12 16:23:57;;;;;;;4.55;1.95;;;;;;;;;;6293625;28;20095;-86
2023/06/12 16:26:58;;;;;;;5.82;2.30;;;;;;;;;;6290756;28;20029;-84
2023/06/12 16:29:58;;;;;;;3.22;2.25;;;;;;;;;;6293240;28;20479;-85
2023/06/12 16:33:02;;;;;;;;;;;;;;;;;;6294522;28;20135;-85
2023/06/12 16:36:03;;;;;;;3.88;1.77;;;;;;;;;;6296822;28;19908;-81
2023/06/12 16:39:04;;;;;;;;;;;;;;;;;;6295948;28;20145;-84
2023/06/12 16:42:06;;;;;;;4.90;1.90;;;;;;;;;;6293057;28;19915;-83
2023/06/12 16:45:07;;;;;;;5.03;2.42;;;;;;;;;;6292559;28;20024;-82
2023/06/12 16:48:07;;;;;;;;;;;;;;;;;;6290255;28;20066;-83
2023/06/12 16:51:12;;;;;;;2.80;2.00;;;;;;;;;;6296746;28;19908;-80
2023/06/12 16:54:13;;;;;;;3.33;1.92;;;;;;;;;;6285837;28;20029;-82
2023/06/12 16:57:13;;;;;;;8.02;2.95;;;;;;;;;;6289565;28;20046;-80
2023/06/12 17:00:14;;;;;;;7.63;4.10;;;;;;;;;;6292918;28;20127;-83
2023/06/12 17:03:14;;;;;;;6.07;2.10;;;;;;;;;;6296891;28;20016;-81
2023/06/12 17:06:15;;;;;;;5.10;2.80;;;;;;;;;;6289984;28;20012;-85
2023/06/12 17:09:15;;;;;;;4.50;2.33;;;;;;;;;;6292253;28;20445;-86
2023/06/12 17:12:20;;;;;;;33.67;8.43;;;;;;;;;;6324961;28;20021;-85
2023/06/12 17:15:20;;;;;;;5.00;2.25;;;;;;;;;;6292811;28;20024;-83
2023/06/12 17:18:20;;;;;;;5.55;3.55;;;;;;;;;;6300445;28;20089;-78
2023/06/12 17:21:20;;;;;;;4.97;3.70;;;;;;;;;;6292849;28;20016;-84
2023/06/12 17:24:20;;;;;;;9.20;2.97;;;;;;;;;;6292468;28;20493;-83
2023/06/12 17:27:21;;;;;;;3.60;2.27;;;;;;;;;;6289677;28;20012;-81
2023/06/12 17:30:21;;;;;;;6.43;2.73;;;;;;;;;;6292466;28;20016;-82
2023/06/12 17:33:21;;;;;;;;;;;;;;;;;;6292543;28;20487;-84
2023/06/12 17:36:21;;;;;;;5.10;2.00;;;;;;;;;;6285517;28;20532;-83
2023/06/12 17:39:22;;;;;;;4.80;2.50;;;;;;;;;;6284874;28;20037;-83
2023/06/12 17:42:22;;;;;;;6.15;2.10;;;;;;;;;;6287184;28;20490;-82
2023/06/12 17:45:22;;;;;;;3.95;1.88;;;;;;;;;;6285237;28;20492;-82
2023/06/12 17:48:23;;;;;;;4.03;2.20;;;;;;;;;;6295201;28;20028;-82
2023/06/12 17:51:23;;;;;;;5.23;2.17;;;;;;;;;;6285725;28;20044;-82
2023/06/12 17:54:24;;;;;;;3.07;1.80;;;;;;;;;;6291665;28;20410;-83
2023/06/12 17:57:24;;;;;;;3.00;1.85;;;;;;;;;;6291558;28;20017;-82
2023/06/12 18:00:24;;;;;;;3.27;2.37;;;;;;;;;;6292398;28;20029;-85
2023/06/12 18:03:26;;;;;;;8.00;2.60;;;;;;;;;;6292544;28;20039;-85
2023/06/12 18:06:26;;;;;;;5.80;2.08;;;;;;;;;;6291684;28;20020;-85
2023/06/12 18:09:26;;;;;;;5.78;2.60;;;;;;;;;;6291280;28;20048;-85
2023/06/12 18:12:26;;;;;;;5.23;2.13;;;;;;;;;;6292832;28;20032;-85
2023/06/12 18:15:27;;;;;;;3.28;1.60;;;;;;;;;;6294538;28;20028;-85
2023/06/12 18:18:27;;;;;;;4.13;2.00;;;;;;;;;;6292150;28;20540;-85
2023/06/12 18:21:27;;;;;;;4.73;2.83;;;;;;;;;;6294799;28;20020;-85
2023/06/12 18:24:27;;;;;;;4.73;1.87;;;;;;;;;;6296481;28;20025;-84
2023/06/12 18:27:27;;;;;;;4.47;1.63;;;;;;;;;;6296984;28;20021;-85
2023/06/12 18:30:27;;;;;;;5.60;2.17;;;;;;;;;;6298513;28;20718;-85
2023/06/12 18:33:28;;;;;;;6.28;2.72;;;;;;;;;;6296236;28;20033;-84
2023/06/12 18:36:28;;;;;;;3.80;2.03;;;;;;;;;;6294888;28;20183;-84
2023/06/12 18:39:28;;;;;;;6.03;2.27;;;;;;;;;;6295954;28;20033;-79
2023/06/12 18:42:29;;;;;;;4.90;2.43;;;;;;;;;;6293698;28;20036;-83
2023/06/12 18:45:29;;;;;;;4.93;2.10;;;;;;;;;;6293246;28;20025;-83
2023/06/12 18:48:29;;;;;;;8.97;4.97;;;;;;;;;;6293489;28;20099;-82
2023/06/12 18:51:29;;;;;;;3.13;2.23;;;;;;;;;;6297893;28;20035;-81
2023/06/12 18:54:30;;;;;;;6.70;2.97;;;;;;;;;;6290773;28;20482;-85
2023/06/12 18:57:30;;;;;;;8.17;2.97;;;;;;;;;;6300231;28;20482;-79
2023/06/12 19:00:30;;;;;;;5.33;2.73;;;;;;;;;;6290111;28;20044;-86
2023/06/12 19:03:31;;;;;;;5.75;2.30;;;;;;;;;;6296250;28;20033;-85
2023/06/12 19:06:32;;;;;;;5.10;2.10;;;;;;;;;;6292413;28;20040;-86
2023/06/12 19:09:32;;;;;;;4.60;2.20;;;;;;;;;;6291261;28;20541;-85
2023/06/12 19:12:32;;;;;;;7.93;2.45;;;;;;;;;;6293502;28;20028;-84
2023/06/12 19:15:32;;;;;;;5.57;2.97;;;;;;;;;;6294317;28;20471;-79
2023/06/12 19:18:32;;;;;;;4.33;2.73;;;;;;;;;;6290406;28;20040;-82